sensor_id;sensor_type;location;lat;lon;timestamp;temperature;humidity
71177;DHT22;58877;51.992;4.504;2023-06-14T00:01:50;20.32;56.35
71177;DHT22;58877;51.992;4.504;2023-06-14T00:04:17;20.32;56.58
71177;DHT22;58877;51.992;4.504;2023-06-14T00:06:44;20.30;56.94
71177;DHT22;58877;51.992;4.504;2023-06-14T00:09:11;20.32;56.53
71177;DHT22;58877;51.992;4.504;2023-06-14T00:11:39;20.29;56.62
71177;DHT22;58877;51.992;4.504;2023-06-14T00:14:08;20.28;56.78
71177;DHT22;58877;51.992;4.504;2023-06-14T00:16:33;20.24;56.68
71177;DHT22;58877;51.992;4.504;2023-06-14T00:19:03;20.17;57.17
71177;DHT22;58877;51.992;4.504;2023-06-14T00:21:30;20.07;57.64
71177;DHT22;58877;51.992;4.504;2023-06-14T00:23:57;20.04;57.76
71177;DHT22;58877;51.992;4.504;2023-06-14T00:26:23;20.02;57.96
71177;DHT22;58877;51.992;4.504;2023-06-14T00:28:49;19.98;58.20
71177;DHT22;58877;51.992;4.504;2023-06-14T00:31:21;19.98;58.06
71177;DHT22;58877;51.992;4.504;2023-06-14T00:33:47;19.97;58.20
71177;DHT22;58877;51.992;4.504;2023-06-14T00:36:15;19.89;58.71
71177;DHT22;58877;51.992;4.504;2023-06-14T00:38:41;19.82;58.78
71177;DHT22;58877;51.992;4.504;2023-06-14T00:41:06;19.82;59.11
71177;DHT22;58877;51.992;4.504;2023-06-14T00:43:32;19.75;59.24
71177;DHT22;58877;51.992;4.504;2023-06-14T00:46:00;19.75;59.42
71177;DHT22;58877;51.992;4.504;2023-06-14T00:48:27;19.73;59.55
71177;DHT22;58877;51.992;4.504;2023-06-14T00:50:54;19.71;59.97
71177;DHT22;58877;51.992;4.504;2023-06-14T00:53:20;19.65;60.02
71177;DHT22;58877;51.992;4.504;2023-06-14T00:55:48;19.60;60.29
71177;DHT22;58877;51.992;4.504;2023-06-14T00:58:15;19.61;60.30
71177;DHT22;58877;51.992;4.504;2023-06-14T01:00:44;19.51;60.53
71177;DHT22;58877;51.992;4.504;2023-06-14T01:03:09;19.51;60.76
71177;DHT22;58877;51.992;4.504;2023-06-14T01:05:38;19.49;60.79
71177;DHT22;58877;51.992;4.504;2023-06-14T01:08:33;19.43;60.79
71177;DHT22;58877;51.992;4.504;2023-06-14T01:11:10;19.38;60.85
71177;DHT22;58877;51.992;4.504;2023-06-14T01:13:46;19.31;61.16
71177;DHT22;58877;51.992;4.504;2023-06-14T01:16:12;19.26;60.90
71177;DHT22;58877;51.992;4.504;2023-06-14T01:18:41;19.24;60.81
71177;DHT22;58877;51.992;4.504;2023-06-14T01:21:23;19.16;61.13
71177;DHT22;58877;51.992;4.504;2023-06-14T01:23:49;19.13;60.72
71177;DHT22;58877;51.992;4.504;2023-06-14T01:26:24;19.09;60.96
71177;DHT22;58877;51.992;4.504;2023-06-14T01:28:53;19.06;61.30
71177;DHT22;58877;51.992;4.504;2023-06-14T01:31:24;19.02;61.04
71177;DHT22;58877;51.992;4.504;2023-06-14T01:33:51;18.92;61.34
71177;DHT22;58877;51.992;4.504;2023-06-14T01:36:22;18.88;60.64
71177;DHT22;58877;51.992;4.504;2023-06-14T01:38:52;18.83;60.46
71177;DHT22;58877;51.992;4.504;2023-06-14T01:41:21;18.76;60.54
71177;DHT22;58877;51.992;4.504;2023-06-14T01:43:49;18.75;60.74
71177;DHT22;58877;51.992;4.504;2023-06-14T01:46:16;18.69;60.69
71177;DHT22;58877;51.992;4.504;2023-06-14T01:48:43;18.65;60.91
71177;DHT22;58877;51.992;4.504;2023-06-14T01:51:09;18.59;61.29
71177;DHT22;58877;51.992;4.504;2023-06-14T01:53:34;18.53;61.84
71177;DHT22;58877;51.992;4.504;2023-06-14T01:56:01;18.51;61.73
71177;DHT22;58877;51.992;4.504;2023-06-14T01:58:27;18.44;61.77
71177;DHT22;58877;51.992;4.504;2023-06-14T02:00:52;18.35;61.97
71177;DHT22;58877;51.992;4.504;2023-06-14T02:03:22;18.32;62.15
71177;DHT22;58877;51.992;4.504;2023-06-14T02:05:48;18.15;62.50
71177;DHT22;58877;51.992;4.504;2023-06-14T02:08:14;17.98;62.86
71177;DHT22;58877;51.992;4.504;2023-06-14T02:10:41;17.94;63.08
71177;DHT22;58877;51.992;4.504;2023-06-14T02:13:09;17.85;63.32
71177;DHT22;58877;51.992;4.504;2023-06-14T02:15:35;17.81;63.24
71177;DHT22;58877;51.992;4.504;2023-06-14T02:18:04;17.77;63.13
71177;DHT22;58877;51.992;4.504;2023-06-14T02:20:30;17.74;63.14
71177;DHT22;58877;51.992;4.504;2023-06-14T02:22:56;17.69;62.76
71177;DHT22;58877;51.992;4.504;2023-06-14T02:25:22;17.64;62.52
71177;DHT22;58877;51.992;4.504;2023-06-14T02:27:48;17.62;62.51
71177;DHT22;58877;51.992;4.504;2023-06-14T02:30:14;17.54;62.60
71177;DHT22;58877;51.992;4.504;2023-06-14T02:32:41;17.54;62.41
71177;DHT22;58877;51.992;4.504;2023-06-14T02:35:08;17.55;62.35
71177;DHT22;58877;51.992;4.504;2023-06-14T02:37:33;17.51;62.41
71177;DHT22;58877;51.992;4.504;2023-06-14T02:40:00;17.51;62.74
71177;DHT22;58877;51.992;4.504;2023-06-14T02:42:26;17.47;62.71
71177;DHT22;58877;51.992;4.504;2023-06-14T02:44:51;17.42;62.67
71177;DHT22;58877;51.992;4.504;2023-06-14T02:47:18;17.36;62.83
71177;DHT22;58877;51.992;4.504;2023-06-14T02:49:44;17.29;62.93
71177;DHT22;58877;51.992;4.504;2023-06-14T02:52:12;17.24;62.80
71177;DHT22;58877;51.992;4.504;2023-06-14T02:54:45;17.24;62.77
71177;DHT22;58877;51.992;4.504;2023-06-14T02:57:10;17.29;62.55
71177;DHT22;58877;51.992;4.504;2023-06-14T02:59:45;17.29;62.34
71177;DHT22;58877;51.992;4.504;2023-06-14T03:02:13;17.26;62.42
71177;DHT22;58877;51.992;4.504;2023-06-14T03:04:40;17.24;62.14
71177;DHT22;58877;51.992;4.504;2023-06-14T03:07:10;17.26;62.00
71177;DHT22;58877;51.992;4.504;2023-06-14T03:09:36;17.24;62.20
71177;DHT22;58877;51.992;4.504;2023-06-14T03:12:03;17.20;61.98
71177;DHT22;58877;51.992;4.504;2023-06-14T03:14:38;17.20;62.19
71177;DHT22;58877;51.992;4.504;2023-06-14T03:17:06;17.20;62.04
71177;DHT22;58877;51.992;4.504;2023-06-14T03:19:33;17.23;61.88
71177;DHT22;58877;51.992;4.504;2023-06-14T03:22:04;17.15;62.08
71177;DHT22;58877;51.992;4.504;2023-06-14T03:24:30;17.12;62.14
71177;DHT22;58877;51.992;4.504;2023-06-14T03:27:00;17.16;61.87
71177;DHT22;58877;51.992;4.504;2023-06-14T03:29:35;17.19;61.90
71177;DHT22;58877;51.992;4.504;2023-06-14T03:32:02;17.19;61.69
71177;DHT22;58877;51.992;4.504;2023-06-14T03:34:29;17.15;61.84
71177;DHT22;58877;51.992;4.504;2023-06-14T03:36:54;17.13;61.79
71177;DHT22;58877;51.992;4.504;2023-06-14T03:39:20;17.13;61.84
71177;DHT22;58877;51.992;4.504;2023-06-14T03:41:52;17.13;61.62
71177;DHT22;58877;51.992;4.504;2023-06-14T03:44:18;17.20;61.91
71177;DHT22;58877;51.992;4.504;2023-06-14T03:46:45;17.19;61.69
71177;DHT22;58877;51.992;4.504;2023-06-14T03:49:12;17.22;61.66
71177;DHT22;58877;51.992;4.504;2023-06-14T03:51:38;17.26;61.46
71177;DHT22;58877;51.992;4.504;2023-06-14T03:54:07;17.29;61.47
71177;DHT22;58877;51.992;4.504;2023-06-14T03:56:36;17.33;61.64
71177;DHT22;58877;51.992;4.504;2023-06-14T03:59:04;17.36;62.39
71177;DHT22;58877;51.992;4.504;2023-06-14T04:01:33;17.42;61.94
71177;DHT22;58877;51.992;4.504;2023-06-14T04:04:01;17.49;61.24
71177;DHT22;58877;51.992;4.504;2023-06-14T04:06:27;17.46;61.69
71177;DHT22;58877;51.992;4.504;2023-06-14T04:08:59;17.54;61.48
71177;DHT22;58877;51.992;4.504;2023-06-14T04:11:32;17.64;61.87
71177;DHT22;58877;51.992;4.504;2023-06-14T04:14:47;17.75;60.90
71177;DHT22;58877;51.992;4.504;2023-06-14T04:16:59;17.83;60.51
71177;DHT22;58877;51.992;4.504;2023-06-14T04:19:24;17.84;60.44
71177;DHT22;58877;51.992;4.504;2023-06-14T04:21:58;17.93;60.48
71177;DHT22;58877;51.992;4.504;2023-06-14T04:24:28;17.90;59.73
71177;DHT22;58877;51.992;4.504;2023-06-14T04:27:03;17.85;59.81
71177;DHT22;58877;51.992;4.504;2023-06-14T04:29:29;17.95;59.65
71177;DHT22;58877;51.992;4.504;2023-06-14T04:31:57;18.04;59.83
71177;DHT22;58877;51.992;4.504;2023-06-14T04:34:30;18.05;58.89
71177;DHT22;58877;51.992;4.504;2023-06-14T04:36:59;18.14;59.07
71177;DHT22;58877;51.992;4.504;2023-06-14T04:39:27;18.14;59.53
71177;DHT22;58877;51.992;4.504;2023-06-14T04:41:56;18.19;58.80
71177;DHT22;58877;51.992;4.504;2023-06-14T04:44:29;18.15;58.35
71177;DHT22;58877;51.992;4.504;2023-06-14T04:46:59;18.17;58.87
71177;DHT22;58877;51.992;4.504;2023-06-14T04:49:28;18.14;58.88
71177;DHT22;58877;51.992;4.504;2023-06-14T04:51:57;18.27;59.19
71177;DHT22;58877;51.992;4.504;2023-06-14T04:54:28;18.31;58.93
71177;DHT22;58877;51.992;4.504;2023-06-14T04:56:59;18.38;57.75
71177;DHT22;58877;51.992;4.504;2023-06-14T04:59:25;18.31;58.12
71177;DHT22;58877;51.992;4.504;2023-06-14T05:01:56;18.44;58.19
71177;DHT22;58877;51.992;4.504;2023-06-14T05:04:22;18.51;58.09
71177;DHT22;58877;51.992;4.504;2023-06-14T05:06:49;18.55;57.62
71177;DHT22;58877;51.992;4.504;2023-06-14T05:09:15;18.52;58.28
71177;DHT22;58877;51.992;4.504;2023-06-14T05:11:45;18.59;57.65
71177;DHT22;58877;51.992;4.504;2023-06-14T05:14:12;18.60;57.20
71177;DHT22;58877;51.992;4.504;2023-06-14T05:16:40;18.60;57.24
71177;DHT22;58877;51.992;4.504;2023-06-14T05:19:06;18.62;57.40
71177;DHT22;58877;51.992;4.504;2023-06-14T05:21:32;18.72;57.41
71177;DHT22;58877;51.992;4.504;2023-06-14T05:24:04;18.63;57.13
71177;DHT22;58877;51.992;4.504;2023-06-14T05:26:30;18.76;57.41
71177;DHT22;58877;51.992;4.504;2023-06-14T05:28:58;18.95;57.65
71177;DHT22;58877;51.992;4.504;2023-06-14T05:31:31;19.07;56.13
71177;DHT22;58877;51.992;4.504;2023-06-14T05:33:58;19.10;56.03
71177;DHT22;58877;51.992;4.504;2023-06-14T05:36:24;19.28;56.19
71177;DHT22;58877;51.992;4.504;2023-06-14T05:38:50;19.44;55.13
71177;DHT22;58877;51.992;4.504;2023-06-14T05:41:30;19.50;54.75
71177;DHT22;58877;51.992;4.504;2023-06-14T05:43:57;19.61;54.37
71177;DHT22;58877;51.992;4.504;2023-06-14T05:46:24;19.73;54.16
71177;DHT22;58877;51.992;4.504;2023-06-14T05:48:55;19.64;53.57
71177;DHT22;58877;51.992;4.504;2023-06-14T05:51:21;19.73;53.24
71177;DHT22;58877;51.992;4.504;2023-06-14T05:53:48;19.84;53.84
71177;DHT22;58877;51.992;4.504;2023-06-14T05:56:20;19.94;52.97
71177;DHT22;58877;51.992;4.504;2023-06-14T05:58:46;20.02;52.73
71177;DHT22;58877;51.992;4.504;2023-06-14T06:01:16;20.08;53.09
71177;DHT22;58877;51.992;4.504;2023-06-14T06:03:43;20.11;52.84
71177;DHT22;58877;51.992;4.504;2023-06-14T06:06:28;20.25;52.33
71177;DHT22;58877;51.992;4.504;2023-06-14T06:08:54;20.29;51.65
71177;DHT22;58877;51.992;4.504;2023-06-14T06:11:20;20.35;52.06
71177;DHT22;58877;51.992;4.504;2023-06-14T06:13:48;20.45;52.62
71177;DHT22;58877;51.992;4.504;2023-06-14T06:16:16;20.48;50.75
71177;DHT22;58877;51.992;4.504;2023-06-14T06:18:42;20.62;51.06
71177;DHT22;58877;51.992;4.504;2023-06-14T06:21:10;20.73;50.91
71177;DHT22;58877;51.992;4.504;2023-06-14T06:23:39;20.83;50.92
71177;DHT22;58877;51.992;4.504;2023-06-14T06:26:08;20.93;49.98
71177;DHT22;58877;51.992;4.504;2023-06-14T06:28:34;20.89;49.47
71177;DHT22;58877;51.992;4.504;2023-06-14T06:31:08;20.93;50.54
71177;DHT22;58877;51.992;4.504;2023-06-14T06:33:35;20.94;49.54
71177;DHT22;58877;51.992;4.504;2023-06-14T06:36:00;21.03;50.56
71177;DHT22;58877;51.992;4.504;2023-06-14T06:38:35;21.22;49.15
71177;DHT22;58877;51.992;4.504;2023-06-14T06:41:01;21.26;49.99
71177;DHT22;58877;51.992;4.504;2023-06-14T06:43:30;21.41;49.94
71177;DHT22;58877;51.992;4.504;2023-06-14T06:45:56;21.51;49.45
71177;DHT22;58877;51.992;4.504;2023-06-14T06:48:21;21.57;47.66
71177;DHT22;58877;51.992;4.504;2023-06-14T06:50:47;21.68;48.89
71177;DHT22;58877;51.992;4.504;2023-06-14T06:53:13;21.81;47.18
71177;DHT22;58877;51.992;4.504;2023-06-14T06:55:39;21.74;47.70
71177;DHT22;58877;51.992;4.504;2023-06-14T06:58:07;21.79;49.40
71177;DHT22;58877;51.992;4.504;2023-06-14T07:00:36;22.05;48.44
71177;DHT22;58877;51.992;4.504;2023-06-14T07:03:04;22.18;46.29
71177;DHT22;58877;51.992;4.504;2023-06-14T07:05:30;22.13;47.58
71177;DHT22;58877;51.992;4.504;2023-06-14T07:07:57;22.26;47.93
71177;DHT22;58877;51.992;4.504;2023-06-14T07:10:22;22.42;47.06
71177;DHT22;58877;51.992;4.504;2023-06-14T07:12:52;22.38;44.99
71177;DHT22;58877;51.992;4.504;2023-06-14T07:15:21;22.25;46.31
71177;DHT22;58877;51.992;4.504;2023-06-14T07:17:48;22.36;46.92
71177;DHT22;58877;51.992;4.504;2023-06-14T07:20:14;22.42;45.82
71177;DHT22;58877;51.992;4.504;2023-06-14T07:22:42;22.62;46.64
71177;DHT22;58877;51.992;4.504;2023-06-14T07:25:12;22.79;45.63
71177;DHT22;58877;51.992;4.504;2023-06-14T07:27:42;23.03;46.30
71177;DHT22;58877;51.992;4.504;2023-06-14T07:30:08;23.30;46.04
71177;DHT22;58877;51.992;4.504;2023-06-14T07:32:38;23.38;44.18
71177;DHT22;58877;51.992;4.504;2023-06-14T07:35:04;23.54;44.74
71177;DHT22;58877;51.992;4.504;2023-06-14T07:37:30;23.69;44.60
71177;DHT22;58877;51.992;4.504;2023-06-14T07:39:56;23.64;43.53
71177;DHT22;58877;51.992;4.504;2023-06-14T07:42:21;23.59;44.68
71177;DHT22;58877;51.992;4.504;2023-06-14T07:44:53;23.81;42.91
71177;DHT22;58877;51.992;4.504;2023-06-14T07:47:20;23.99;42.71
71177;DHT22;58877;51.992;4.504;2023-06-14T07:49:50;24.32;43.88
71177;DHT22;58877;51.992;4.504;2023-06-14T07:52:16;24.49;43.09
71177;DHT22;58877;51.992;4.504;2023-06-14T07:54:43;24.42;40.40
71177;DHT22;58877;51.992;4.504;2023-06-14T07:57:09;24.63;42.34
71177;DHT22;58877;51.992;4.504;2023-06-14T07:59:35;24.66;42.79
71177;DHT22;58877;51.992;4.504;2023-06-14T08:02:01;24.87;41.29
71177;DHT22;58877;51.992;4.504;2023-06-14T08:04:27;25.08;41.56
71177;DHT22;58877;51.992;4.504;2023-06-14T08:06:53;25.27;39.74
71177;DHT22;58877;51.992;4.504;2023-06-14T08:09:19;25.34;40.85
71177;DHT22;58877;51.992;4.504;2023-06-14T08:11:45;25.57;40.97
71177;DHT22;58877;51.992;4.504;2023-06-14T08:14:10;25.78;40.26
71177;DHT22;58877;51.992;4.504;2023-06-14T08:16:36;26.05;39.67
71177;DHT22;58877;51.992;4.504;2023-06-14T08:19:03;26.35;40.34
71177;DHT22;58877;51.992;4.504;2023-06-14T08:21:29;26.39;39.23
71177;DHT22;58877;51.992;4.504;2023-06-14T08:23:55;26.37;38.18
71177;DHT22;58877;51.992;4.504;2023-06-14T08:26:22;26.44;39.14
71177;DHT22;58877;51.992;4.504;2023-06-14T08:28:48;26.63;38.06
71177;DHT22;58877;51.992;4.504;2023-06-14T08:31:14;26.73;39.64
71177;DHT22;58877;51.992;4.504;2023-06-14T08:33:40;26.79;37.84
71177;DHT22;58877;51.992;4.504;2023-06-14T08:36:08;26.83;38.66
71177;DHT22;58877;51.992;4.504;2023-06-14T08:38:39;26.60;37.88
71177;DHT22;58877;51.992;4.504;2023-06-14T08:41:06;26.67;38.07
71177;DHT22;58877;51.992;4.504;2023-06-14T08:43:32;26.76;37.93
71177;DHT22;58877;51.992;4.504;2023-06-14T08:46:02;26.91;38.53
71177;DHT22;58877;51.992;4.504;2023-06-14T08:48:29;26.82;38.22
71177;DHT22;58877;51.992;4.504;2023-06-14T08:51:00;26.90;37.29
71177;DHT22;58877;51.992;4.504;2023-06-14T08:53:33;26.98;38.36
71177;DHT22;58877;51.992;4.504;2023-06-14T08:56:02;27.21;38.16
71177;DHT22;58877;51.992;4.504;2023-06-14T08:58:31;27.20;36.57
71177;DHT22;58877;51.992;4.504;2023-06-14T09:01:01;27.21;37.42
71177;DHT22;58877;51.992;4.504;2023-06-14T09:03:27;27.37;37.32
71177;DHT22;58877;51.992;4.504;2023-06-14T09:05:59;27.47;36.34
71177;DHT22;58877;51.992;4.504;2023-06-14T09:08:28;27.49;36.88
71177;DHT22;58877;51.992;4.504;2023-06-14T09:11:03;27.47;37.85
71177;DHT22;58877;51.992;4.504;2023-06-14T09:13:29;27.62;36.45
71177;DHT22;58877;51.992;4.504;2023-06-14T09:16:00;27.66;37.18
71177;DHT22;58877;51.992;4.504;2023-06-14T09:18:44;27.88;36.33
71177;DHT22;58877;51.992;4.504;2023-06-14T09:21:33;27.92;36.27
71177;DHT22;58877;51.992;4.504;2023-06-14T09:24:06;27.68;35.21
71177;DHT22;58877;51.992;4.504;2023-06-14T09:26:33;27.40;36.47
71177;DHT22;58877;51.992;4.504;2023-06-14T09:29:06;27.42;36.14
71177;DHT22;58877;51.992;4.504;2023-06-14T09:31:32;27.58;36.51
71177;DHT22;58877;51.992;4.504;2023-06-14T09:34:02;27.72;35.83
71177;DHT22;58877;51.992;4.504;2023-06-14T09:36:31;27.75;34.03
71177;DHT22;58877;51.992;4.504;2023-06-14T09:38:59;27.71;36.60
71177;DHT22;58877;51.992;4.504;2023-06-14T09:41:39;27.69;35.37
71177;DHT22;58877;51.992;4.504;2023-06-14T09:44:11;27.49;34.62
71177;DHT22;58877;51.992;4.504;2023-06-14T09:46:44;27.35;34.86
71177;DHT22;58877;51.992;4.504;2023-06-14T09:49:10;27.47;35.85
71177;DHT22;58877;51.992;4.504;2023-06-14T09:51:45;27.69;35.41
71177;DHT22;58877;51.992;4.504;2023-06-14T09:54:16;27.69;35.03
71177;DHT22;58877;51.992;4.504;2023-06-14T09:56:47;27.75;34.32
71177;DHT22;58877;51.992;4.504;2023-06-14T09:59:19;27.77;34.45
71177;DHT22;58877;51.992;4.504;2023-06-14T10:01:57;27.82;35.30
71177;DHT22;58877;51.992;4.504;2023-06-14T10:04:33;27.88;32.81
71177;DHT22;58877;51.992;4.504;2023-06-14T10:07:00;27.82;33.99
71177;DHT22;58877;51.992;4.504;2023-06-14T10:09:33;27.92;35.67
71177;DHT22;58877;51.992;4.504;2023-06-14T10:12:02;27.98;31.66
71177;DHT22;58877;51.992;4.504;2023-06-14T10:14:30;28.06;32.52
71177;DHT22;58877;51.992;4.504;2023-06-14T10:17:20;28.10;32.56
71177;DHT22;58877;51.992;4.504;2023-06-14T10:20:30;28.26;32.84
71177;DHT22;58877;51.992;4.504;2023-06-14T10:23:18;28.26;31.94
71177;DHT22;58877;51.992;4.504;2023-06-14T10:25:44;28.16;30.91
71177;DHT22;58877;51.992;4.504;2023-06-14T10:28:22;28.32;32.15
71177;DHT22;58877;51.992;4.504;2023-06-14T10:31:06;28.37;32.33
71177;DHT22;58877;51.992;4.504;2023-06-14T10:41:29;28.42;30.13
71177;DHT22;58877;51.992;4.504;2023-06-14T10:46:46;28.55;31.08
71177;DHT22;58877;51.992;4.504;2023-06-14T10:49:16;28.52;29.83
71177;DHT22;58877;51.992;4.504;2023-06-14T10:51:50;28.47;32.13
71177;DHT22;58877;51.992;4.504;2023-06-14T10:54:23;28.60;33.31
71177;DHT22;58877;51.992;4.504;2023-06-14T10:56:53;28.46;29.73
71177;DHT22;58877;51.992;4.504;2023-06-14T10:59:22;28.50;31.93
71177;DHT22;58877;51.992;4.504;2023-06-14T11:02:46;28.63;31.20
71177;DHT22;58877;51.992;4.504;2023-06-14T11:04:52;28.59;30.31
71177;DHT22;58877;51.992;4.504;2023-06-14T11:07:46;28.64;31.54
71177;DHT22;58877;51.992;4.504;2023-06-14T11:10:37;28.73;31.79
71177;DHT22;58877;51.992;4.504;2023-06-14T11:13:04;28.71;30.79
71177;DHT22;58877;51.992;4.504;2023-06-14T11:15:34;28.77;32.87
71177;DHT22;58877;51.992;4.504;2023-06-14T11:18:02;28.88;33.58
71177;DHT22;58877;51.992;4.504;2023-06-14T11:20:34;29.06;32.69
71177;DHT22;58877;51.992;4.504;2023-06-14T11:23:04;29.08;30.00
71177;DHT22;58877;51.992;4.504;2023-06-14T11:25:30;29.01;30.18
71177;DHT22;58877;51.992;4.504;2023-06-14T11:27:57;29.12;32.00
71177;DHT22;58877;51.992;4.504;2023-06-14T11:30:27;29.11;30.62
71177;DHT22;58877;51.992;4.504;2023-06-14T11:32:54;29.01;31.38
71177;DHT22;58877;51.992;4.504;2023-06-14T11:35:24;29.01;30.71
71177;DHT22;58877;51.992;4.504;2023-06-14T11:37:55;28.91;30.16
71177;DHT22;58877;51.992;4.504;2023-06-14T11:40:26;28.71;27.52
71177;DHT22;58877;51.992;4.504;2023-06-14T11:43:01;28.56;31.67
71177;DHT22;58877;51.992;4.504;2023-06-14T11:45:28;28.59;30.62
71177;DHT22;58877;51.992;4.504;2023-06-14T11:47:56;28.74;31.39
71177;DHT22;58877;51.992;4.504;2023-06-14T11:50:22;28.74;29.96
71177;DHT22;58877;51.992;4.504;2023-06-14T11:52:58;28.84;29.53
71177;DHT22;58877;51.992;4.504;2023-06-14T11:55:36;29.01;29.59
71177;DHT22;58877;51.992;4.504;2023-06-14T11:58:02;29.18;29.31
71177;DHT22;58877;51.992;4.504;2023-06-14T12:00:28;29.31;30.55
71177;DHT22;58877;51.992;4.504;2023-06-14T12:08:05;29.10;30.42
71177;DHT22;58877;51.992;4.504;2023-06-14T12:10:40;29.34;31.45
71177;DHT22;58877;51.992;4.504;2023-06-14T12:13:09;29.48;27.96
71177;DHT22;58877;51.992;4.504;2023-06-14T12:15:38;29.54;29.44
71177;DHT22;58877;51.992;4.504;2023-06-14T12:18:06;29.51;28.63
71177;DHT22;58877;51.992;4.504;2023-06-14T12:28:14;29.68;29.01
71177;DHT22;58877;51.992;4.504;2023-06-14T12:30:46;29.65;29.00
71177;DHT22;58877;51.992;4.504;2023-06-14T12:33:13;29.52;27.98
71177;DHT22;58877;51.992;4.504;2023-06-14T12:35:56;29.25;28.48
71177;DHT22;58877;51.992;4.504;2023-06-14T12:38:36;29.47;30.83
71177;DHT22;58877;51.992;4.504;2023-06-14T12:41:22;29.66;30.33
71177;DHT22;58877;51.992;4.504;2023-06-14T12:43:52;29.71;27.61
71177;DHT22;58877;51.992;4.504;2023-06-14T12:46:31;29.47;29.61
71177;DHT22;58877;51.992;4.504;2023-06-14T12:49:00;29.32;29.15
71177;DHT22;58877;51.992;4.504;2023-06-14T12:51:26;29.14;28.36
71177;DHT22;58877;51.992;4.504;2023-06-14T12:53:55;28.87;29.52
71177;DHT22;58877;51.992;4.504;2023-06-14T12:56:21;28.39;28.82
71177;DHT22;58877;51.992;4.504;2023-06-14T12:58:46;28.68;28.87
71177;DHT22;58877;51.992;4.504;2023-06-14T13:01:12;28.31;28.56
71177;DHT22;58877;51.992;4.504;2023-06-14T13:03:41;27.95;30.43
71177;DHT22;58877;51.992;4.504;2023-06-14T13:06:07;28.40;30.90
71177;DHT22;58877;51.992;4.504;2023-06-14T13:08:32;28.68;29.22
71177;DHT22;58877;51.992;4.504;2023-06-14T13:11:01;29.00;30.70
71177;DHT22;58877;51.992;4.504;2023-06-14T13:13:26;29.11;29.75
71177;DHT22;58877;51.992;4.504;2023-06-14T13:15:52;29.15;30.95
71177;DHT22;58877;51.992;4.504;2023-06-14T13:18:18;28.94;27.74
71177;DHT22;58877;51.992;4.504;2023-06-14T13:20:45;28.33;28.68
71177;DHT22;58877;51.992;4.504;2023-06-14T13:23:11;28.20;30.93
71177;DHT22;58877;51.992;4.504;2023-06-14T13:25:40;28.12;29.25
71177;DHT22;58877;51.992;4.504;2023-06-14T13:28:06;28.40;31.39
71177;DHT22;58877;51.992;4.504;2023-06-14T13:30:35;28.60;30.50
71177;DHT22;58877;51.992;4.504;2023-06-14T13:33:04;28.66;28.07
71177;DHT22;58877;51.992;4.504;2023-06-14T13:35:29;28.68;29.18
71177;DHT22;58877;51.992;4.504;2023-06-14T13:37:55;28.77;29.95
71177;DHT22;58877;51.992;4.504;2023-06-14T13:40:24;28.78;27.40
71177;DHT22;58877;51.992;4.504;2023-06-14T13:42:50;28.74;27.61
71177;DHT22;58877;51.992;4.504;2023-06-14T13:45:16;28.77;27.85
71177;DHT22;58877;51.992;4.504;2023-06-14T13:47:42;29.37;29.78
71177;DHT22;58877;51.992;4.504;2023-06-14T13:50:08;28.87;27.30
71177;DHT22;58877;51.992;4.504;2023-06-14T13:52:39;29.27;30.08
71177;DHT22;58877;51.992;4.504;2023-06-14T13:55:06;29.72;26.88
71177;DHT22;58877;51.992;4.504;2023-06-14T13:57:32;29.06;27.40
71177;DHT22;58877;51.992;4.504;2023-06-14T13:59:58;29.12;28.37
71177;DHT22;58877;51.992;4.504;2023-06-14T14:02:27;29.14;27.68
71177;DHT22;58877;51.992;4.504;2023-06-14T14:04:56;29.17;27.92
71177;DHT22;58877;51.992;4.504;2023-06-14T14:07:22;29.06;29.18
71177;DHT22;58877;51.992;4.504;2023-06-14T14:09:51;29.35;29.77
71177;DHT22;58877;51.992;4.504;2023-06-14T14:12:19;29.15;28.65
71177;DHT22;58877;51.992;4.504;2023-06-14T14:14:44;28.78;28.23
71177;DHT22;58877;51.992;4.504;2023-06-14T14:17:10;28.98;30.11
71177;DHT22;58877;51.992;4.504;2023-06-14T14:19:35;29.52;30.39
71177;DHT22;58877;51.992;4.504;2023-06-14T14:22:02;30.12;31.01
71177;DHT22;58877;51.992;4.504;2023-06-14T14:24:28;30.50;28.30
71177;DHT22;58877;51.992;4.504;2023-06-14T14:26:53;29.59;28.03
71177;DHT22;58877;51.992;4.504;2023-06-14T14:29:19;29.31;27.67
71177;DHT22;58877;51.992;4.504;2023-06-14T14:31:46;28.96;28.69
71177;DHT22;58877;51.992;4.504;2023-06-14T14:34:12;29.65;32.24
71177;DHT22;58877;51.992;4.504;2023-06-14T14:36:38;29.82;27.46
71177;DHT22;58877;51.992;4.504;2023-06-14T14:39:10;29.76;27.36
71177;DHT22;58877;51.992;4.504;2023-06-14T14:41:37;29.24;28.03
71177;DHT22;58877;51.992;4.504;2023-06-14T14:44:04;28.87;27.58
71177;DHT22;58877;51.992;4.504;2023-06-14T14:46:30;28.87;27.78
71177;DHT22;58877;51.992;4.504;2023-06-14T14:48:56;28.68;28.92
71177;DHT22;58877;51.992;4.504;2023-06-14T14:51:21;28.87;27.80
71177;DHT22;58877;51.992;4.504;2023-06-14T14:53:47;29.76;28.48
71177;DHT22;58877;51.992;4.504;2023-06-14T14:56:13;29.89;26.45
71177;DHT22;58877;51.992;4.504;2023-06-14T14:58:38;31.07;27.98
71177;DHT22;58877;51.992;4.504;2023-06-14T15:01:04;32.56;25.54
71177;DHT22;58877;51.992;4.504;2023-06-14T15:03:31;32.81;23.62
71177;DHT22;58877;51.992;4.504;2023-06-14T15:05:59;32.52;25.12
71177;DHT22;58877;51.992;4.504;2023-06-14T15:08:37;33.28;26.02
71177;DHT22;58877;51.992;4.504;2023-06-14T15:11:03;33.50;25.90
71177;DHT22;58877;51.992;4.504;2023-06-14T15:13:28;33.82;24.06
71177;DHT22;58877;51.992;4.504;2023-06-14T15:15:54;34.17;25.17
71177;DHT22;58877;51.992;4.504;2023-06-14T15:18:20;34.33;23.83
71177;DHT22;58877;51.992;4.504;2023-06-14T15:20:47;34.86;24.54
71177;DHT22;58877;51.992;4.504;2023-06-14T15:23:12;34.90;22.34
71177;DHT22;58877;51.992;4.504;2023-06-14T15:25:45;34.88;22.18
71177;DHT22;58877;51.992;4.504;2023-06-14T15:28:12;34.25;24.16
71177;DHT22;58877;51.992;4.504;2023-06-14T15:30:38;33.91;23.17
71177;DHT22;58877;51.992;4.504;2023-06-14T15:33:03;32.73;24.12
71177;DHT22;58877;51.992;4.504;2023-06-14T15:35:31;31.93;25.85
71177;DHT22;58877;51.992;4.504;2023-06-14T15:37:57;33.38;25.91
71177;DHT22;58877;51.992;4.504;2023-06-14T15:40:23;33.76;26.39
71177;DHT22;58877;51.992;4.504;2023-06-14T15:42:49;34.32;23.13
71177;DHT22;58877;51.992;4.504;2023-06-14T15:45:14;35.34;23.80
71177;DHT22;58877;51.992;4.504;2023-06-14T15:47:41;36.21;21.29
71177;DHT22;58877;51.992;4.504;2023-06-14T15:50:07;36.53;23.40
71177;DHT22;58877;51.992;4.504;2023-06-14T15:52:33;35.64;23.62
71177;DHT22;58877;51.992;4.504;2023-06-14T15:55:05;36.03;20.04
71177;DHT22;58877;51.992;4.504;2023-06-14T15:57:31;35.13;22.37
71177;DHT22;58877;51.992;4.504;2023-06-14T15:59:57;34.79;23.08
71177;DHT22;58877;51.992;4.504;2023-06-14T16:02:22;34.53;20.59
71177;DHT22;58877;51.992;4.504;2023-06-14T16:04:48;33.93;24.22